sensor_id;sensor_type;location;lat;lon;timestamp;P1;durP1;ratioP1;P2;durP2;ratioP2
66800;SDS011;53703;50.326;19.122;2023-06-14T00:00:39;9.90;;;5.30;;
66800;SDS011;53703;50.326;19.122;2023-06-14T00:03:47;9.90;;;4.90;;
66800;SDS011;53703;50.326;19.122;2023-06-14T00:06:42;8.30;;;4.50;;
66800;SDS011;53703;50.326;19.122;2023-06-14T00:09:36;7.20;;;4.20;;
66800;SDS011;53703;50.326;19.122;2023-06-14T00:12:30;8.10;;;4.50;;
66800;SDS011;53703;50.326;19.122;2023-06-14T00:15:25;9.00;;;4.30;;
66800;SDS011;53703;50.326;19.122;2023-06-14T00:18:09;9.10;;;4.40;;
66800;SDS011;53703;50.326;19.122;2023-06-14T00:21:03;9.20;;;4.90;;
66800;SDS011;53703;50.326;19.122;2023-06-14T00:23:57;7.90;;;4.80;;
66800;SDS011;53703;50.326;19.122;2023-06-14T00:26:51;8.80;;;4.40;;
66800;SDS011;53703;50.326;19.122;2023-06-14T00:29:46;10.30;;;4.80;;
66800;SDS011;53703;50.326;19.122;2023-06-14T00:32:40;7.40;;;4.30;;
66800;SDS011;53703;50.326;19.122;2023-06-14T00:35:35;7.40;;;4.40;;
66800;SDS011;53703;50.326;19.122;2023-06-14T00:38:29;8.70;;;4.30;;
66800;SDS011;53703;50.326;19.122;2023-06-14T00:41:29;7.20;;;4.20;;
66800;SDS011;53703;50.326;19.122;2023-06-14T00:44:24;7.10;;;3.90;;
66800;SDS011;53703;50.326;19.122;2023-06-14T00:47:18;6.30;;;4.00;;
66800;SDS011;53703;50.326;19.122;2023-06-14T00:50:13;8.60;;;4.20;;
66800;SDS011;53703;50.326;19.122;2023-06-14T00:53:08;8.40;;;4.60;;
66800;SDS011;53703;50.326;19.122;2023-06-14T00:56:03;7.50;;;4.70;;
66800;SDS011;53703;50.326;19.122;2023-06-14T00:58:57;6.70;;;4.30;;
66800;SDS011;53703;50.326;19.122;2023-06-14T01:01:51;7.60;;;4.70;;
66800;SDS011;53703;50.326;19.122;2023-06-14T01:04:48;11.60;;;5.70;;
66800;SDS011;53703;50.326;19.122;2023-06-14T01:07:51;9.10;;;5.40;;
66800;SDS011;53703;50.326;19.122;2023-06-14T01:11:12;9.20;;;5.00;;
66800;SDS011;53703;50.326;19.122;2023-06-14T01:14:13;7.80;;;4.60;;
66800;SDS011;53703;50.326;19.122;2023-06-14T01:17:09;7.60;;;4.20;;
66800;SDS011;53703;50.326;19.122;2023-06-14T01:20:09;8.00;;;4.60;;
66800;SDS011;53703;50.326;19.122;2023-06-14T01:23:09;7.00;;;4.10;;
66800;SDS011;53703;50.326;19.122;2023-06-14T01:26:03;8.20;;;4.00;;
66800;SDS011;53703;50.326;19.122;2023-06-14T01:28:57;5.70;;;3.90;;
66800;SDS011;53703;50.326;19.122;2023-06-14T01:31:51;7.30;;;4.30;;
66800;SDS011;53703;50.326;19.122;2023-06-14T01:34:47;8.40;;;4.40;;
66800;SDS011;53703;50.326;19.122;2023-06-14T01:37:41;8.20;;;4.90;;
66800;SDS011;53703;50.326;19.122;2023-06-14T01:40:40;8.90;;;5.00;;
66800;SDS011;53703;50.326;19.122;2023-06-14T01:43:34;8.00;;;5.00;;
66800;SDS011;53703;50.326;19.122;2023-06-14T01:46:29;7.80;;;4.80;;
66800;SDS011;53703;50.326;19.122;2023-06-14T01:49:23;8.30;;;4.50;;
66800;SDS011;53703;50.326;19.122;2023-06-14T01:52:17;6.80;;;4.30;;
66800;SDS011;53703;50.326;19.122;2023-06-14T01:55:13;7.40;;;4.10;;
66800;SDS011;53703;50.326;19.122;2023-06-14T01:58:09;6.90;;;4.20;;
66800;SDS011;53703;50.326;19.122;2023-06-14T02:01:04;6.70;;;3.80;;
66800;SDS011;53703;50.326;19.122;2023-06-14T02:03:58;6.60;;;3.90;;
66800;SDS011;53703;50.326;19.122;2023-06-14T02:06:52;6.80;;;3.90;;
66800;SDS011;53703;50.326;19.122;2023-06-14T02:09:46;7.20;;;3.90;;
66800;SDS011;53703;50.326;19.122;2023-06-14T02:12:40;7.60;;;4.30;;
66800;SDS011;53703;50.326;19.122;2023-06-14T02:15:34;8.60;;;4.30;;
66800;SDS011;53703;50.326;19.122;2023-06-14T02:18:28;6.60;;;3.90;;
66800;SDS011;53703;50.326;19.122;2023-06-14T02:21:23;8.40;;;4.00;;
66800;SDS011;53703;50.326;19.122;2023-06-14T02:24:17;7.60;;;4.40;;
66800;SDS011;53703;50.326;19.122;2023-06-14T02:27:11;8.20;;;4.60;;
66800;SDS011;53703;50.326;19.122;2023-06-14T02:30:07;8.60;;;4.30;;
66800;SDS011;53703;50.326;19.122;2023-06-14T02:33:02;7.10;;;4.30;;
66800;SDS011;53703;50.326;19.122;2023-06-14T02:35:57;11.30;;;4.90;;
66800;SDS011;53703;50.326;19.122;2023-06-14T02:38:51;7.60;;;4.60;;
66800;SDS011;53703;50.326;19.122;2023-06-14T02:41:45;8.00;;;4.30;;
66800;SDS011;53703;50.326;19.122;2023-06-14T02:44:38;8.10;;;4.70;;
66800;SDS011;53703;50.326;19.122;2023-06-14T02:47:34;8.80;;;4.50;;
66800;SDS011;53703;50.326;19.122;2023-06-14T02:50:28;6.70;;;4.10;;
66800;SDS011;53703;50.326;19.122;2023-06-14T02:53:23;8.30;;;4.40;;
66800;SDS011;53703;50.326;19.122;2023-06-14T02:56:16;7.20;;;4.20;;
66800;SDS011;53703;50.326;19.122;2023-06-14T02:59:11;7.50;;;4.10;;
66800;SDS011;53703;50.326;19.122;2023-06-14T03:02:06;9.00;;;4.30;;
66800;SDS011;53703;50.326;19.122;2023-06-14T03:05:00;12.20;;;4.40;;
66800;SDS011;53703;50.326;19.122;2023-06-14T03:07:54;7.10;;;4.10;;
66800;SDS011;53703;50.326;19.122;2023-06-14T03:10:48;8.20;;;4.40;;
66800;SDS011;53703;50.326;19.122;2023-06-14T03:13:43;7.90;;;4.80;;
66800;SDS011;53703;50.326;19.122;2023-06-14T03:16:38;7.40;;;4.40;;
66800;SDS011;53703;50.326;19.122;2023-06-14T03:19:32;8.00;;;4.60;;
66800;SDS011;53703;50.326;19.122;2023-06-14T03:22:26;7.90;;;4.30;;
66800;SDS011;53703;50.326;19.122;2023-06-14T03:25:20;7.90;;;4.70;;
66800;SDS011;53703;50.326;19.122;2023-06-14T03:28:15;7.50;;;4.60;;
66800;SDS011;53703;50.326;19.122;2023-06-14T03:31:09;9.00;;;5.00;;
66800;SDS011;53703;50.326;19.122;2023-06-14T03:34:03;8.00;;;4.60;;
66800;SDS011;53703;50.326;19.122;2023-06-14T03:36:57;7.70;;;4.50;;
66800;SDS011;53703;50.326;19.122;2023-06-14T03:39:51;7.90;;;4.70;;
66800;SDS011;53703;50.326;19.122;2023-06-14T03:42:47;8.00;;;4.70;;
66800;SDS011;53703;50.326;19.122;2023-06-14T03:45:41;10.00;;;5.00;;
66800;SDS011;53703;50.326;19.122;2023-06-14T03:48:35;8.80;;;4.50;;
66800;SDS011;53703;50.326;19.122;2023-06-14T03:51:31;8.20;;;4.80;;
66800;SDS011;53703;50.326;19.122;2023-06-14T03:54:26;13.70;;;5.00;;
66800;SDS011;53703;50.326;19.122;2023-06-14T03:57:40;8.50;;;4.90;;
66800;SDS011;53703;50.326;19.122;2023-06-14T04:00:34;12.30;;;5.00;;
66800;SDS011;53703;50.326;19.122;2023-06-14T04:03:28;8.30;;;4.80;;
66800;SDS011;53703;50.326;19.122;2023-06-14T04:06:21;12.30;;;5.50;;
66800;SDS011;53703;50.326;19.122;2023-06-14T04:09:27;10.10;;;5.60;;
66800;SDS011;53703;50.326;19.122;2023-06-14T04:12:21;8.40;;;4.90;;
66800;SDS011;53703;50.326;19.122;2023-06-14T04:15:15;9.90;;;5.70;;
66800;SDS011;53703;50.326;19.122;2023-06-14T04:18:13;11.20;;;6.20;;
66800;SDS011;53703;50.326;19.122;2023-06-14T04:21:07;11.90;;;6.50;;
66800;SDS011;53703;50.326;19.122;2023-06-14T04:24:00;11.10;;;6.10;;
66800;SDS011;53703;50.326;19.122;2023-06-14T04:26:54;14.70;;;6.30;;
66800;SDS011;53703;50.326;19.122;2023-06-14T04:29:49;16.40;;;6.20;;
66800;SDS011;53703;50.326;19.122;2023-06-14T04:32:47;10.30;;;5.60;;
66800;SDS011;53703;50.326;19.122;2023-06-14T04:36:18;11.50;;;5.90;;
66800;SDS011;53703;50.326;19.122;2023-06-14T04:39:13;10.40;;;5.40;;
66800;SDS011;53703;50.326;19.122;2023-06-14T04:42:09;12.50;;;6.10;;
66800;SDS011;53703;50.326;19.122;2023-06-14T04:45:07;11.80;;;6.00;;
66800;SDS011;53703;50.326;19.122;2023-06-14T04:48:01;15.40;;;5.80;;
66800;SDS011;53703;50.326;19.122;2023-06-14T04:50:57;11.80;;;6.00;;
66800;SDS011;53703;50.326;19.122;2023-06-14T04:53:51;12.20;;;6.40;;
66800;SDS011;53703;50.326;19.122;2023-06-14T04:56:47;16.60;;;6.10;;
66800;SDS011;53703;50.326;19.122;2023-06-14T04:59:42;14.10;;;6.30;;
66800;SDS011;53703;50.326;19.122;2023-06-14T05:02:36;14.20;;;6.80;;
66800;SDS011;53703;50.326;19.122;2023-06-14T05:05:31;13.20;;;6.90;;
66800;SDS011;53703;50.326;19.122;2023-06-14T05:08:26;13.20;;;6.00;;
66800;SDS011;53703;50.326;19.122;2023-06-14T05:11:20;14.00;;;7.00;;
66800;SDS011;53703;50.326;19.122;2023-06-14T05:14:14;13.50;;;7.10;;
66800;SDS011;53703;50.326;19.122;2023-06-14T05:17:11;12.40;;;7.00;;
66800;SDS011;53703;50.326;19.122;2023-06-14T05:20:07;11.00;;;6.70;;
66800;SDS011;53703;50.326;19.122;2023-06-14T05:23:02;13.10;;;7.20;;
66800;SDS011;53703;50.326;19.122;2023-06-14T05:25:56;15.60;;;6.20;;
66800;SDS011;53703;50.326;19.122;2023-06-14T05:28:50;12.40;;;6.60;;
66800;SDS011;53703;50.326;19.122;2023-06-14T05:31:45;9.90;;;6.30;;
66800;SDS011;53703;50.326;19.122;2023-06-14T05:34:40;12.20;;;6.20;;
66800;SDS011;53703;50.326;19.122;2023-06-14T05:37:35;11.70;;;6.40;;
66800;SDS011;53703;50.326;19.122;2023-06-14T05:40:31;13.40;;;6.70;;
66800;SDS011;53703;50.326;19.122;2023-06-14T05:43:26;12.50;;;6.80;;
66800;SDS011;53703;50.326;19.122;2023-06-14T05:46:20;10.20;;;6.00;;
66800;SDS011;53703;50.326;19.122;2023-06-14T05:49:16;11.20;;;5.70;;
66800;SDS011;53703;50.326;19.122;2023-06-14T05:52:11;10.20;;;6.40;;
66800;SDS011;53703;50.326;19.122;2023-06-14T05:55:06;10.60;;;6.00;;
66800;SDS011;53703;50.326;19.122;2023-06-14T05:58:04;10.90;;;6.30;;
66800;SDS011;53703;50.326;19.122;2023-06-14T06:00:58;10.00;;;6.00;;
66800;SDS011;53703;50.326;19.122;2023-06-14T06:03:53;13.10;;;6.70;;
66800;SDS011;53703;50.326;19.122;2023-06-14T06:06:48;10.70;;;6.00;;
66800;SDS011;53703;50.326;19.122;2023-06-14T06:09:42;11.50;;;6.30;;
66800;SDS011;53703;50.326;19.122;2023-06-14T06:12:36;12.90;;;6.40;;
66800;SDS011;53703;50.326;19.122;2023-06-14T06:15:29;10.40;;;6.20;;
66800;SDS011;53703;50.326;19.122;2023-06-14T06:18:24;9.60;;;6.20;;
66800;SDS011;53703;50.326;19.122;2023-06-14T06:21:19;11.70;;;6.40;;
66800;SDS011;53703;50.326;19.122;2023-06-14T06:24:13;10.20;;;6.10;;
66800;SDS011;53703;50.326;19.122;2023-06-14T06:27:07;10.70;;;6.10;;
66800;SDS011;53703;50.326;19.122;2023-06-14T06:30:03;9.40;;;5.90;;
66800;SDS011;53703;50.326;19.122;2023-06-14T06:32:58;10.20;;;5.60;;
66800;SDS011;53703;50.326;19.122;2023-06-14T06:35:53;10.20;;;5.60;;
66800;SDS011;53703;50.326;19.122;2023-06-14T06:38:47;10.00;;;6.00;;
66800;SDS011;53703;50.326;19.122;2023-06-14T06:41:41;9.30;;;5.50;;
66800;SDS011;53703;50.326;19.122;2023-06-14T06:44:35;9.40;;;5.70;;
66800;SDS011;53703;50.326;19.122;2023-06-14T06:47:28;7.80;;;5.10;;
66800;SDS011;53703;50.326;19.122;2023-06-14T06:50:23;9.00;;;5.00;;
66800;SDS011;53703;50.326;19.122;2023-06-14T06:53:17;7.30;;;5.00;;
66800;SDS011;53703;50.326;19.122;2023-06-14T06:56:30;8.20;;;4.90;;
66800;SDS011;53703;50.326;19.122;2023-06-14T06:59:27;7.50;;;4.00;;
66800;SDS011;53703;50.326;19.122;2023-06-14T07:02:21;8.80;;;4.60;;
66800;SDS011;53703;50.326;19.122;2023-06-14T07:05:15;11.20;;;5.10;;
66800;SDS011;53703;50.326;19.122;2023-06-14T07:08:10;7.10;;;4.00;;
66800;SDS011;53703;50.326;19.122;2023-06-14T07:11:04;7.90;;;4.20;;
66800;SDS011;53703;50.326;19.122;2023-06-14T07:13:58;5.60;;;3.40;;
66800;SDS011;53703;50.326;19.122;2023-06-14T07:16:53;5.50;;;3.50;;
66800;SDS011;53703;50.326;19.122;2023-06-14T07:19:47;5.00;;;3.20;;
66800;SDS011;53703;50.326;19.122;2023-06-14T07:22:44;4.40;;;3.10;;
66800;SDS011;53703;50.326;19.122;2023-06-14T07:25:33;6.00;;;3.30;;
66800;SDS011;53703;50.326;19.122;2023-06-14T07:28:27;5.90;;;3.00;;
66800;SDS011;53703;50.326;19.122;2023-06-14T07:31:21;5.30;;;3.10;;
66800;SDS011;53703;50.326;19.122;2023-06-14T07:34:15;5.50;;;3.20;;
66800;SDS011;53703;50.326;19.122;2023-06-14T07:37:09;4.70;;;2.90;;
66800;SDS011;53703;50.326;19.122;2023-06-14T07:40:05;5.50;;;3.00;;
66800;SDS011;53703;50.326;19.122;2023-06-14T07:43:02;5.00;;;3.40;;
66800;SDS011;53703;50.326;19.122;2023-06-14T07:45:54;9.40;;;2.90;;
66800;SDS011;53703;50.326;19.122;2023-06-14T07:48:57;16.30;;;3.60;;
66800;SDS011;53703;50.326;19.122;2023-06-14T07:51:50;5.30;;;2.80;;
66800;SDS011;53703;50.326;19.122;2023-06-14T07:57:46;3.80;;;2.50;;
66800;SDS011;53703;50.326;19.122;2023-06-14T08:00:52;4.20;;;2.70;;
66800;SDS011;53703;50.326;19.122;2023-06-14T08:03:43;4.60;;;2.70;;
66800;SDS011;53703;50.326;19.122;2023-06-14T08:06:37;9.60;;;3.20;;
66800;SDS011;53703;50.326;19.122;2023-06-14T08:09:48;5.80;;;2.80;;
66800;SDS011;53703;50.326;19.122;2023-06-14T08:12:42;4.60;;;2.40;;
66800;SDS011;53703;50.326;19.122;2023-06-14T08:15:37;4.20;;;2.90;;
66800;SDS011;53703;50.326;19.122;2023-06-14T08:18:31;5.20;;;2.80;;
66800;SDS011;53703;50.326;19.122;2023-06-14T08:21:26;4.20;;;2.60;;
66800;SDS011;53703;50.326;19.122;2023-06-14T08:24:24;4.30;;;2.90;;
66800;SDS011;53703;50.326;19.122;2023-06-14T08:27:41;4.90;;;3.00;;
66800;SDS011;53703;50.326;19.122;2023-06-14T08:30:38;3.90;;;2.70;;
66800;SDS011;53703;50.326;19.122;2023-06-14T08:37:07;4.00;;;2.90;;
66800;SDS011;53703;50.326;19.122;2023-06-14T08:40:04;4.80;;;2.70;;
66800;SDS011;53703;50.326;19.122;2023-06-14T08:43:13;4.90;;;2.70;;
66800;SDS011;53703;50.326;19.122;2023-06-14T08:46:02;3.90;;;2.90;;
66800;SDS011;53703;50.326;19.122;2023-06-14T08:49:09;5.60;;;3.10;;
66800;SDS011;53703;50.326;19.122;2023-06-14T08:52:07;4.30;;;2.70;;
66800;SDS011;53703;50.326;19.122;2023-06-14T08:56:39;5.50;;;3.20;;
66800;SDS011;53703;50.326;19.122;2023-06-14T08:59:35;4.60;;;3.20;;
66800;SDS011;53703;50.326;19.122;2023-06-14T09:02:34;5.10;;;3.20;;
66800;SDS011;53703;50.326;19.122;2023-06-14T09:05:28;14.60;;;8.10;;
66800;SDS011;53703;50.326;19.122;2023-06-14T09:08:23;10.20;;;5.00;;
66800;SDS011;53703;50.326;19.122;2023-06-14T09:11:18;7.10;;;4.10;;
66800;SDS011;53703;50.326;19.122;2023-06-14T09:14:13;6.40;;;4.20;;
66800;SDS011;53703;50.326;19.122;2023-06-14T09:17:08;6.20;;;3.80;;
66800;SDS011;53703;50.326;19.122;2023-06-14T09:20:08;5.70;;;3.50;;
66800;SDS011;53703;50.326;19.122;2023-06-14T09:23:05;5.90;;;3.70;;
66800;SDS011;53703;50.326;19.122;2023-06-14T09:25:59;4.80;;;3.00;;
66800;SDS011;53703;50.326;19.122;2023-06-14T09:28:54;5.00;;;3.00;;
66800;SDS011;53703;50.326;19.122;2023-06-14T09:31:49;5.00;;;3.20;;
66800;SDS011;53703;50.326;19.122;2023-06-14T09:34:43;6.90;;;3.20;;
66800;SDS011;53703;50.326;19.122;2023-06-14T09:37:37;7.40;;;2.90;;
66800;SDS011;53703;50.326;19.122;2023-06-14T09:40:34;4.80;;;3.00;;
66800;SDS011;53703;50.326;19.122;2023-06-14T09:43:29;4.20;;;2.60;;
66800;SDS011;53703;50.326;19.122;2023-06-14T09:46:25;4.30;;;3.30;;
66800;SDS011;53703;50.326;19.122;2023-06-14T09:49:20;4.70;;;2.80;;
66800;SDS011;53703;50.326;19.122;2023-06-14T09:52:18;5.80;;;3.20;;
66800;SDS011;53703;50.326;19.122;2023-06-14T09:55:14;4.00;;;3.00;;
66800;SDS011;53703;50.326;19.122;2023-06-14T09:58:10;5.70;;;4.30;;
66800;SDS011;53703;50.326;19.122;2023-06-14T10:01:06;8.50;;;4.50;;
66800;SDS011;53703;50.326;19.122;2023-06-14T10:04:05;5.80;;;4.50;;
66800;SDS011;53703;50.326;19.122;2023-06-14T10:07:02;8.20;;;4.90;;
66800;SDS011;53703;50.326;19.122;2023-06-14T10:09:57;7.00;;;5.10;;
66800;SDS011;53703;50.326;19.122;2023-06-14T10:12:52;9.10;;;5.20;;
66800;SDS011;53703;50.326;19.122;2023-06-14T10:15:52;7.40;;;5.00;;
66800;SDS011;53703;50.326;19.122;2023-06-14T10:18:45;7.70;;;5.50;;
66800;SDS011;53703;50.326;19.122;2023-06-14T10:21:46;7.20;;;5.00;;
66800;SDS011;53703;50.326;19.122;2023-06-14T10:27:43;6.50;;;4.20;;
66800;SDS011;53703;50.326;19.122;2023-06-14T10:30:38;7.70;;;4.30;;
66800;SDS011;53703;50.326;19.122;2023-06-14T10:33:32;4.70;;;3.80;;
66800;SDS011;53703;50.326;19.122;2023-06-14T10:36:28;6.30;;;4.70;;
66800;SDS011;53703;50.326;19.122;2023-06-14T10:39:23;5.90;;;4.50;;
66800;SDS011;53703;50.326;19.122;2023-06-14T10:42:18;9.60;;;3.80;;
66800;SDS011;53703;50.326;19.122;2023-06-14T10:45:15;5.30;;;3.80;;
66800;SDS011;53703;50.326;19.122;2023-06-14T10:48:09;7.30;;;3.70;;
66800;SDS011;53703;50.326;19.122;2023-06-14T10:51:24;5.40;;;3.40;;
66800;SDS011;53703;50.326;19.122;2023-06-14T10:54:23;8.00;;;4.00;;
66800;SDS011;53703;50.326;19.122;2023-06-14T10:57:19;6.20;;;3.60;;
66800;SDS011;53703;50.326;19.122;2023-06-14T11:00:14;7.20;;;4.10;;
66800;SDS011;53703;50.326;19.122;2023-06-14T11:06:49;5.20;;;3.60;;
66800;SDS011;53703;50.326;19.122;2023-06-14T11:10:05;6.30;;;3.80;;
66800;SDS011;53703;50.326;19.122;2023-06-14T11:16:03;6.60;;;4.00;;
66800;SDS011;53703;50.326;19.122;2023-06-14T11:19:25;4.90;;;3.30;;
66800;SDS011;53703;50.326;19.122;2023-06-14T11:22:19;6.90;;;3.90;;
66800;SDS011;53703;50.326;19.122;2023-06-14T11:25:13;5.60;;;3.40;;
66800;SDS011;53703;50.326;19.122;2023-06-14T11:28:08;6.00;;;3.70;;
66800;SDS011;53703;50.326;19.122;2023-06-14T11:31:02;4.80;;;3.20;;
66800;SDS011;53703;50.326;19.122;2023-06-14T11:33:57;5.40;;;3.50;;
66800;SDS011;53703;50.326;19.122;2023-06-14T11:36:52;4.50;;;3.20;;
66800;SDS011;53703;50.326;19.122;2023-06-14T11:39:46;4.90;;;3.50;;
66800;SDS011;53703;50.326;19.122;2023-06-14T11:42:41;5.50;;;3.30;;
66800;SDS011;53703;50.326;19.122;2023-06-14T11:45:35;7.80;;;4.80;;
66800;SDS011;53703;50.326;19.122;2023-06-14T11:48:38;7.10;;;4.00;;
66800;SDS011;53703;50.326;19.122;2023-06-14T11:51:34;6.70;;;3.90;;
66800;SDS011;53703;50.326;19.122;2023-06-14T11:54:28;10.10;;;4.90;;
66800;SDS011;53703;50.326;19.122;2023-06-14T11:57:24;6.50;;;3.50;;
66800;SDS011;53703;50.326;19.122;2023-06-14T12:00:19;6.90;;;3.90;;
66800;SDS011;53703;50.326;19.122;2023-06-14T12:06:09;13.60;;;4.70;;
66800;SDS011;53703;50.326;19.122;2023-06-14T12:09:05;12.70;;;5.00;;
66800;SDS011;53703;50.326;19.122;2023-06-14T12:12:06;13.30;;;5.30;;
66800;SDS011;53703;50.326;19.122;2023-06-14T12:15:02;12.00;;;5.80;;
66800;SDS011;53703;50.326;19.122;2023-06-14T12:17:58;12.90;;;5.60;;
66800;SDS011;53703;50.326;19.122;2023-06-14T12:20:52;11.20;;;5.80;;
66800;SDS011;53703;50.326;19.122;2023-06-14T12:23:47;11.00;;;5.70;;
66800;SDS011;53703;50.326;19.122;2023-06-14T12:26:42;8.50;;;5.10;;
66800;SDS011;53703;50.326;19.122;2023-06-14T12:29:36;11.60;;;5.70;;
66800;SDS011;53703;50.326;19.122;2023-06-14T12:32:32;10.70;;;5.70;;
66800;SDS011;53703;50.326;19.122;2023-06-14T12:35:26;11.10;;;5.90;;
66800;SDS011;53703;50.326;19.122;2023-06-14T12:38:21;10.10;;;5.60;;
66800;SDS011;53703;50.326;19.122;2023-06-14T12:41:18;12.30;;;5.70;;
66800;SDS011;53703;50.326;19.122;2023-06-14T12:44:13;10.30;;;5.60;;
66800;SDS011;53703;50.326;19.122;2023-06-14T12:47:08;13.20;;;5.60;;
66800;SDS011;53703;50.326;19.122;2023-06-14T12:50:04;11.10;;;5.10;;
66800;SDS011;53703;50.326;19.122;2023-06-14T12:52:59;11.00;;;5.00;;
66800;SDS011;53703;50.326;19.122;2023-06-14T12:55:54;9.30;;;4.30;;
66800;SDS011;53703;50.326;19.122;2023-06-14T12:58:49;9.00;;;4.50;;
66800;SDS011;53703;50.326;19.122;2023-06-14T13:01:43;8.90;;;5.10;;
66800;SDS011;53703;50.326;19.122;2023-06-14T13:04:40;8.80;;;4.40;;
66800;SDS011;53703;50.326;19.122;2023-06-14T13:07:35;10.10;;;4.60;;
66800;SDS011;53703;50.326;19.122;2023-06-14T13:10:19;15.20;;;4.80;;
66800;SDS011;53703;50.326;19.122;2023-06-14T13:16:34;17.10;;;5.80;;
66800;SDS011;53703;50.326;19.122;2023-06-14T13:19:28;21.00;;;6.60;;
66800;SDS011;53703;50.326;19.122;2023-06-14T13:22:22;19.70;;;6.20;;
66800;SDS011;53703;50.326;19.122;2023-06-14T13:25:17;15.70;;;5.40;;
66800;SDS011;53703;50.326;19.122;2023-06-14T13:28:11;15.40;;;5.70;;
66800;SDS011;53703;50.326;19.122;2023-06-14T13:31:06;15.80;;;4.80;;
66800;SDS011;53703;50.326;19.122;2023-06-14T13:34:00;10.50;;;4.20;;
66800;SDS011;53703;50.326;19.122;2023-06-14T13:36:54;10.00;;;4.00;;
66800;SDS011;53703;50.326;19.122;2023-06-14T13:39:50;9.40;;;4.20;;
66800;SDS011;53703;50.326;19.122;2023-06-14T13:42:44;11.20;;;4.20;;
66800;SDS011;53703;50.326;19.122;2023-06-14T13:45:39;7.60;;;3.70;;
66800;SDS011;53703;50.326;19.122;2023-06-14T13:48:33;9.00;;;4.20;;
66800;SDS011;53703;50.326;19.122;2023-06-14T13:51:28;9.30;;;3.90;;
66800;SDS011;53703;50.326;19.122;2023-06-14T13:54:23;12.10;;;4.30;;
66800;SDS011;53703;50.326;19.122;2023-06-14T13:57:17;7.20;;;4.20;;
66800;SDS011;53703;50.326;19.122;2023-06-14T14:00:13;7.30;;;4.10;;
66800;SDS011;53703;50.326;19.122;2023-06-14T14:03:12;7.00;;;3.60;;
66800;SDS011;53703;50.326;19.122;2023-06-14T14:06:07;7.80;;;3.80;;
66800;SDS011;53703;50.326;19.122;2023-06-14T14:09:01;25.50;;;4.30;;
66800;SDS011;53703;50.326;19.122;2023-06-14T14:12:01;7.00;;;3.30;;
66800;SDS011;53703;50.326;19.122;2023-06-14T14:14:52;6.00;;;3.00;;
66800;SDS011;53703;50.326;19.122;2023-06-14T14:17:46;6.20;;;3.40;;
66800;SDS011;53703;50.326;19.122;2023-06-14T14:20:45;7.10;;;3.30;;
66800;SDS011;53703;50.326;19.122;2023-06-14T14:23:41;5.80;;;3.40;;
66800;SDS011;53703;50.326;19.122;2023-06-14T14:26:36;5.40;;;3.20;;
66800;SDS011;53703;50.326;19.122;2023-06-14T14:29:29;7.70;;;3.60;;
66800;SDS011;53703;50.326;19.122;2023-06-14T14:32:23;5.50;;;3.30;;
66800;SDS011;53703;50.326;19.122;2023-06-14T14:35:17;6.30;;;3.50;;
66800;SDS011;53703;50.326;19.122;2023-06-14T14:38:15;6.00;;;3.70;;
66800;SDS011;53703;50.326;19.122;2023-06-14T14:41:09;5.10;;;3.30;;
66800;SDS011;53703;50.326;19.122;2023-06-14T14:44:03;6.40;;;3.60;;
66800;SDS011;53703;50.326;19.122;2023-06-14T14:46:58;8.20;;;3.70;;
66800;SDS011;53703;50.326;19.122;2023-06-14T14:49:46;5.70;;;3.70;;
66800;SDS011;53703;50.326;19.122;2023-06-14T14:52:41;6.30;;;3.80;;
66800;SDS011;53703;50.326;19.122;2023-06-14T14:55:36;6.30;;;4.30;;
66800;SDS011;53703;50.326;19.122;2023-06-14T14:58:32;6.20;;;4.00;;
66800;SDS011;53703;50.326;19.122;2023-06-14T15:01:26;5.70;;;3.80;;
66800;SDS011;53703;50.326;19.122;2023-06-14T15:04:20;6.50;;;4.10;;
66800;SDS011;53703;50.326;19.122;2023-06-14T15:07:14;7.90;;;3.80;;
66800;SDS011;53703;50.326;19.122;2023-06-14T15:10:09;6.20;;;4.10;;
66800;SDS011;53703;50.326;19.122;2023-06-14T15:13:04;8.10;;;4.60;;
66800;SDS011;53703;50.326;19.122;2023-06-14T15:15:58;6.20;;;3.90;;
66800;SDS011;53703;50.326;19.122;2023-06-14T15:18:52;7.20;;;4.60;;
66800;SDS011;53703;50.326;19.122;2023-06-14T15:21:46;7.20;;;3.60;;
66800;SDS011;53703;50.326;19.122;2023-06-14T15:24:41;6.20;;;3.90;;
66800;SDS011;53703;50.326;19.122;2023-06-14T15:27:40;6.60;;;3.90;;
66800;SDS011;53703;50.326;19.122;2023-06-14T15:30:34;6.40;;;3.90;;
66800;SDS011;53703;50.326;19.122;2023-06-14T15:33:28;5.80;;;3.80;;
66800;SDS011;53703;50.326;19.122;2023-06-14T15:36:24;5.80;;;3.60;;
66800;SDS011;53703;50.326;19.122;2023-06-14T15:39:19;6.30;;;3.80;;
66800;SDS011;53703;50.326;19.122;2023-06-14T15:42:15;5.10;;;3.60;;
66800;SDS011;53703;50.326;19.122;2023-06-14T15:45:10;5.70;;;3.60;;
66800;SDS011;53703;50.326;19.122;2023-06-14T15:48:05;5.90;;;3.80;;
66800;SDS011;53703;50.326;19.122;2023-06-14T15:50:59;6.90;;;3.80;;
66800;SDS011;53703;50.326;19.122;2023-06-14T15:53:53;6.20;;;3.40;;
66800;SDS011;53703;50.326;19.122;2023-06-14T15:56:47;5.50;;;3.60;;
66800;SDS011;53703;50.326;19.122;2023-06-14T15:59:41;5.60;;;3.50;;
66800;SDS011;53703;50.326;19.122;2023-06-14T16:02:36;6.10;;;3.40;;
66800;SDS011;53703;50.326;19.122;2023-06-14T16:05:30;6.00;;;3.30;;
66800;SDS011;53703;50.326;19.122;2023-06-14T16:08:24;6.10;;;3.40;;
66800;SDS011;53703;50.326;19.122;2023-06-14T16:11:31;4.50;;;3.00;;
66800;SDS011;53703;50.326;19.122;2023-06-14T16:14:26;5.50;;;3.30;;
66800;SDS011;53703;50.326;19.122;2023-06-14T16:17:20;5.30;;;3.40;;
66800;SDS011;53703;50.326;19.122;2023-06-14T16:20:14;4.50;;;3.20;;
66800;SDS011;53703;50.326;19.122;2023-06-14T16:23:08;6.30;;;3.40;;
66800;SDS011;53703;50.326;19.122;2023-06-14T16:26:02;5.40;;;3.80;;
66800;SDS011;53703;50.326;19.122;2023-06-14T16:28:56;6.50;;;3.80;;
66800;SDS011;53703;50.326;19.122;2023-06-14T16:31:51;5.00;;;3.60;;
66800;SDS011;53703;50.326;19.122;2023-06-14T16:34:44;5.50;;;3.70;;
66800;SDS011;53703;50.326;19.122;2023-06-14T16:37:38;6.20;;;3.60;;
66800;SDS011;53703;50.326;19.122;2023-06-14T16:40:22;6.50;;;3.60;;
66800;SDS011;53703;50.326;19.122;2023-06-14T16:43:17;5.60;;;3.50;;
66800;SDS011;53703;50.326;19.122;2023-06-14T16:46:13;5.70;;;3.70;;
66800;SDS011;53703;50.326;19.122;2023-06-14T16:49:19;5.80;;;3.50;;
66800;SDS011;53703;50.326;19.122;2023-06-14T16:52:14;5.50;;;3.60;;
66800;SDS011;53703;50.326;19.122;2023-06-14T16:55:09;6.10;;;3.60;;
66800;SDS011;53703;50.326;19.122;2023-06-14T16:58:02;6.00;;;3.60;;
66800;SDS011;53703;50.326;19.122;2023-06-14T17:00:56;5.40;;;3.70;;
66800;SDS011;53703;50.326;19.122;2023-06-14T17:03:51;5.90;;;3.60;;
66800;SDS011;53703;50.326;19.122;2023-06-14T17:06:45;6.20;;;3.60;;
66800;SDS011;53703;50.326;19.122;2023-06-14T17:09:39;6.10;;;3.60;;
66800;SDS011;53703;50.326;19.122;2023-06-14T17:12:34;6.10;;;3.50;;
66800;SDS011;53703;50.326;19.122;2023-06-14T17:15:29;6.50;;;3.50;;
66800;SDS011;53703;50.326;19.122;2023-06-14T17:18:23;6.10;;;3.80;;
66800;SDS011;53703;50.326;19.122;2023-06-14T17:21:17;10.30;;;4.00;;
66800;SDS011;53703;50.326;19.122;2023-06-14T17:33:32;6.90;;;3.50;;
66800;SDS011;53703;50.326;19.122;2023-06-14T17:36:27;7.80;;;4.10;;
66800;SDS011;53703;50.326;19.122;2023-06-14T17:39:21;7.00;;;4.20;;
66800;SDS011;53703;50.326;19.122;2023-06-14T17:42:15;5.40;;;4.00;;
66800;SDS011;53703;50.326;19.122;2023-06-14T17:45:11;8.20;;;4.30;;
66800;SDS011;53703;50.326;19.122;2023-06-14T17:48:05;6.30;;;3.80;;
66800;SDS011;53703;50.326;19.122;2023-06-14T17:51:00;5.20;;;4.00;;